createdAt,value
2023-02-18T00:01:16.662Z,1.10
2023-02-18T00:03:43.300Z,1.00
2023-02-18T00:06:15.121Z,1.27
2023-02-18T00:08:43.280Z,0.93
2023-02-18T00:11:10.185Z,1.20
2023-02-18T00:13:36.974Z,1.03
2023-02-18T00:16:12.875Z,1.20
2023-02-18T00:18:39.810Z,0.87
2023-02-18T00:21:08.276Z,1.00
2023-02-18T00:23:35.407Z,1.00
2023-02-18T00:26:08.428Z,1.00
2023-02-18T00:28:35.687Z,0.90
2023-02-18T00:31:24.801Z,0.97
2023-02-18T00:33:51.821Z,0.80
2023-02-18T00:36:20.202Z,1.07
2023-02-18T00:38:48.417Z,0.50
2023-02-18T00:41:15.715Z,0.77
2023-02-18T00:43:43.212Z,0.83
2023-02-18T00:46:11.166Z,0.77
2023-02-18T00:48:38.020Z,0.60
2023-02-18T00:51:06.273Z,0.80
2023-02-18T00:53:33.364Z,0.60
2023-02-18T00:56:00.154Z,0.90
2023-02-18T00:58:27.131Z,0.80
2023-02-18T01:00:54.826Z,0.60
2023-02-18T01:03:22.630Z,0.90
2023-02-18T01:05:50.398Z,0.70
2023-02-18T01:08:17.950Z,0.60
2023-02-18T01:10:46.414Z,0.60
2023-02-18T01:13:15.162Z,0.70
2023-02-18T01:15:42.913Z,0.67
2023-02-18T01:18:10.456Z,0.60
2023-02-18T01:20:39.030Z,0.63
2023-02-18T01:23:05.609Z,0.63
2023-02-18T01:25:32.961Z,0.70
2023-02-18T01:27:59.544Z,0.70
2023-02-18T01:30:26.244Z,0.60
2023-02-18T01:32:52.843Z,0.60
2023-02-18T01:35:20.433Z,0.60
2023-02-18T01:37:47.609Z,0.80
2023-02-18T01:40:18.468Z,0.70
2023-02-18T01:42:45.428Z,0.80
2023-02-18T01:45:30.689Z,0.77
2023-02-18T01:47:57.468Z,0.67
2023-02-18T01:50:24.530Z,0.70
2023-02-18T01:52:51.120Z,0.70
2023-02-18T01:55:17.762Z,0.53
2023-02-18T01:57:44.303Z,0.70
2023-02-18T02:00:14.973Z,0.80
2023-02-18T02:02:45.803Z,0.80
2023-02-18T02:05:13.231Z,0.60
2023-02-18T02:07:42.818Z,0.80
2023-02-18T02:10:14.505Z,1.20
2023-02-18T02:13:07.237Z,1.20
2023-02-18T02:16:13.630Z,0.63
2023-02-18T02:18:58.476Z,0.77
2023-02-18T02:22:09.899Z,1.03
2023-02-18T02:24:57.954Z,0.90
2023-02-18T02:27:30.836Z,0.90
2023-02-18T02:30:19.174Z,0.83
2023-02-18T02:33:08.851Z,0.97
2023-02-18T02:35:47.461Z,0.97
2023-02-18T02:38:18.965Z,0.93
2023-02-18T02:40:59.915Z,0.70
2023-02-18T02:43:48.895Z,0.53
2023-02-18T02:46:26.546Z,0.63
2023-02-18T02:49:04.690Z,0.60
2023-02-18T02:51:50.049Z,0.50
2023-02-18T02:54:22.385Z,0.70
2023-02-18T02:56:49.505Z,0.83
2023-02-18T02:59:26.370Z,1.17
2023-02-18T03:02:30.388Z,1.00
2023-02-18T03:05:26.225Z,0.90
2023-02-18T03:08:07.150Z,0.70
2023-02-18T03:10:33.637Z,0.77
2023-02-18T03:13:03.212Z,0.73
2023-02-18T03:15:41.776Z,0.90
2023-02-18T03:18:18.436Z,0.73
2023-02-18T03:20:55.659Z,0.63
2023-02-18T03:23:27.634Z,0.70
2023-02-18T03:25:57.018Z,0.67
2023-02-18T03:28:28.646Z,0.90
2023-02-18T03:31:18.507Z,0.70
2023-02-18T03:33:50.689Z,0.80
2023-02-18T03:36:20.370Z,1.00
2023-02-18T03:39:01.338Z,0.90
2023-02-18T03:41:27.956Z,0.83
2023-02-18T03:44:00.650Z,0.83
2023-02-18T03:46:28.515Z,0.80
2023-02-18T03:48:57.762Z,0.60
2023-02-18T03:51:24.307Z,0.60
2023-02-18T03:53:50.842Z,0.60
2023-02-18T03:56:17.914Z,0.70
2023-02-18T03:58:44.543Z,0.93
2023-02-18T04:01:11.133Z,0.67
2023-02-18T04:03:37.819Z,0.87
2023-02-18T04:06:04.578Z,0.60
2023-02-18T04:08:31.097Z,0.63
2023-02-18T04:10:57.592Z,1.10
2023-02-18T04:13:24.245Z,1.47
2023-02-18T04:15:51.816Z,1.10
2023-02-18T04:18:19.322Z,1.00
2023-02-18T04:20:46.473Z,0.80
2023-02-18T04:23:13.233Z,0.90
2023-02-18T04:25:39.861Z,1.10
2023-02-18T04:28:09.640Z,0.80
2023-02-18T04:30:36.488Z,0.80
2023-02-18T04:33:03.038Z,0.43
2023-02-18T04:35:29.903Z,0.60
2023-02-18T04:37:56.428Z,0.50
2023-02-18T04:40:25.367Z,0.70
2023-02-18T04:42:51.910Z,0.50
2023-02-18T04:45:18.662Z,0.57
2023-02-18T04:47:45.186Z,0.60
2023-02-18T04:50:11.783Z,0.60
2023-02-18T04:52:38.360Z,0.67
2023-02-18T04:55:05.176Z,0.80
2023-02-18T04:57:31.685Z,0.90
2023-02-18T04:59:58.320Z,0.60
2023-02-18T05:02:24.916Z,0.70
2023-02-18T05:04:51.481Z,0.40
2023-02-18T05:07:18.027Z,0.40
2023-02-18T05:09:44.679Z,0.50
2023-02-18T05:12:11.234Z,0.40
2023-02-18T05:14:37.759Z,0.43
2023-02-18T05:17:04.355Z,0.30
2023-02-18T05:19:30.948Z,0.30
2023-02-18T05:21:57.846Z,0.43
2023-02-18T05:24:24.469Z,0.60
2023-02-18T05:26:51.003Z,0.30
2023-02-18T05:29:17.576Z,0.30
2023-02-18T05:31:44.230Z,0.30
2023-02-18T05:34:10.854Z,0.30
2023-02-18T05:36:37.410Z,0.30
2023-02-18T05:39:04.386Z,0.30
2023-02-18T05:41:30.979Z,0.23
2023-02-18T05:44:16.077Z,0.40
2023-02-18T05:46:42.735Z,0.30
2023-02-18T05:49:09.394Z,0.50
2023-02-18T05:51:35.907Z,0.30
2023-02-18T05:54:02.486Z,0.20
